San Luis Valley Regional Bergman Field
KALS : now visible

Airfield :











YOU CAN JOIN US ON...

 
LOGIN :

Register | Disclaimer

   EN    FR    IT 

 









Legend :    VFR   Marginal VFR   IFR   Intensive IFR   Very Intensive IFR
Visi :
Ceiling :
>= 8 km
>= 3000ft
5 to 8 km
1000 to 3000 ft
1500m to 5 km
500 to 1000 ft
800 to 1500m
200 to 500 ft
< 800m
< 200 ft
Symbols :   Thunderstorms  Fog  Heavy snow  Heavy precipitations  Wind > 20 kt






- Airport Elevation : 7539 ft


KALS - San Luis Valley Regional Bergman Field

CURRENT METAR :
  • 201552Z AUTO 15004KT 1/2SM FZFG VV003 M10/M11 A3032 RMK AO2 SLP340 T11001106

EXPIRED METARs :
  • 201452Z AUTO 00000KT 1/2SM FZFG VV003 M11/M11 A3032 RMK AO2 SLP337 T11061111 53002
  • 201408Z AUTO 19005KT 3/4SM BR OVC002 M11/M12 A3031 RMK AO2 T11111117
  • 201352Z AUTO 00000KT 1SM BR OVC003 M11/M12 A3031 RMK AO2 SLP325 T11111122

TAF KALS
Valid from the 20 at 16:00 until the 21 at 12:00 UTC


201601Z 2016/2112 VRB03KT P6SM SCT002 BKN006
TEMPO 2016/2017 1/2SM FZFG OVC002
FM201700 VRB04KT P6SM SCT020 BKN110
FM202100 VRB04KT P6SM SCT180
KZDV FIR / North America



MET'MAP, your aeronautical weather chart ! - Copyright ORBIFLY December 2007 - Disclaimer

ORBIFLY MET'MAP TEAM :

Programming & Development : Alexandra Zaïnal
Concept & original design : Baudouin d'Aumeries
Assistance for programming : Marc-Olivier Méhu
Technical & hardware support : Manuel Goepfert

Contact : metmap@orbifly.com




SOURCES & CREDITS :

   NOAA       Earth
Advisory